KJWG

Watonga Regional Airport

Watonga, Oklahoma, USA
METAR KJWG 170155Z AUTO 16011G16KT 10SM SCT049 SCT120 12/M01 A2989 RMK AO2 T01201015
Observed Flight Rules
Dec-17 @ 01:55 UTC (35 minutes ago) Visual Flight Rules
Wind Visibility Clouds
160° at 11 knots
 Gusting to 16 knots
10 miles
  • Scattered at 4,900' AGL
  • Scattered at 12,000' AGL
Temperatures Readings
Current 12°C / 54°F
Dewpoint -2°C / 28°F
Humidity 38%
Altimeter 29.89" Hg
Pressure 1012 hPa
Elevation 472
METAR KJWG 170155Z AUTO 16011G16KT 10SM SCT049 SCT120 12/M01 A2989 RMK AO2 T01201015
Observed Flight Rules
Dec-17 @ 01:55 UTC
(35 minutes ago)
VFR
Wind Visibility
160° at 11 knots
 Gusting to 16 knots
10 miles
Clouds
  • Scattered at 4,900' AGL
  • Scattered at 12,000' AGL
Temperature Dewpoint
12°C / 54°F -2°C / 28°F
Humidity Altimeter Pressure
38% 29.89" Hg 1012 hPa